createdAt,value
2018-07-22T00:00:44.491Z,18.40
2018-07-22T00:03:13.474Z,18.40
2018-07-22T00:05:42.535Z,18.40
2018-07-22T00:08:11.569Z,18.40
2018-07-22T00:10:40.563Z,18.50
2018-07-22T00:13:09.488Z,18.40
2018-07-22T00:15:38.393Z,18.40
2018-07-22T00:18:07.464Z,18.40
2018-07-22T00:20:36.492Z,18.40
2018-07-22T00:30:31.108Z,18.30
2018-07-22T00:33:00.103Z,18.30
2018-07-22T00:35:29.116Z,18.30
2018-07-22T00:37:58.109Z,18.30
2018-07-22T00:40:27.062Z,18.30
2018-07-22T00:42:56.111Z,18.30
2018-07-22T00:45:25.111Z,18.30
2018-07-22T00:50:22.611Z,18.20
2018-07-22T00:52:51.701Z,18.20
2018-07-22T00:55:20.689Z,18.20
2018-07-22T00:57:49.711Z,18.20
2018-07-22T01:00:19.580Z,18.20
2018-07-22T01:02:48.631Z,18.20
2018-07-22T01:05:17.650Z,18.20
2018-07-22T01:07:46.637Z,18.20
2018-07-22T01:10:15.686Z,18.10
2018-07-22T01:12:44.684Z,18.10
2018-07-22T01:15:14.066Z,18.10
2018-07-22T01:17:43.101Z,18.10
2018-07-22T01:20:12.170Z,18.10
2018-07-22T01:22:41.090Z,18.10
2018-07-22T01:25:10.051Z,18.10
2018-07-22T01:27:39.074Z,18.10
2018-07-22T01:30:09.527Z,18.00
2018-07-22T01:32:38.668Z,18.00
2018-07-22T01:35:07.700Z,18.00
2018-07-22T01:37:36.649Z,18.00
2018-07-22T01:40:05.794Z,18.00
2018-07-22T01:42:34.790Z,18.00
2018-07-22T01:45:03.795Z,18.00
2018-07-22T01:47:32.796Z,17.90
2018-07-22T01:50:01.704Z,17.90
2018-07-22T01:52:30.750Z,17.90
2018-07-22T01:54:59.691Z,17.90
2018-07-22T01:57:28.677Z,17.90
2018-07-22T01:59:57.622Z,17.90
2018-07-22T02:02:26.538Z,17.90
2018-07-22T02:04:55.488Z,17.90
2018-07-22T02:07:24.491Z,17.80
2018-07-22T02:09:53.492Z,17.80
2018-07-22T02:12:22.479Z,17.80
2018-07-22T02:14:51.537Z,17.80
2018-07-22T02:17:20.508Z,17.80
2018-07-22T02:19:49.514Z,17.90
2018-07-22T02:22:18.505Z,17.80
2018-07-22T02:27:16.351Z,17.80
2018-07-22T02:29:45.274Z,17.80
2018-07-22T02:32:14.207Z,17.80
2018-07-22T02:34:43.249Z,17.80
2018-07-22T02:37:12.237Z,17.80
2018-07-22T02:39:41.211Z,17.80
2018-07-22T02:42:10.168Z,17.80
2018-07-22T02:44:39.258Z,17.70
2018-07-22T02:47:08.331Z,17.70
2018-07-22T02:49:37.289Z,17.70
2018-07-22T02:52:06.378Z,17.60
2018-07-22T02:54:35.351Z,17.60
2018-07-22T02:57:04.203Z,17.60
2018-07-22T02:59:33.191Z,17.60
2018-07-22T03:02:02.390Z,17.60
2018-07-22T03:06:59.712Z,17.50
2018-07-22T03:09:28.733Z,17.50
2018-07-22T03:11:57.672Z,17.50
2018-07-22T03:14:26.633Z,17.50
2018-07-22T03:16:55.580Z,17.40
2018-07-22T03:19:24.572Z,17.50
2018-07-22T03:21:53.510Z,17.50
2018-07-22T03:24:22.472Z,17.50
2018-07-22T03:26:51.605Z,17.50
2018-07-22T03:29:21.032Z,17.50
2018-07-22T03:31:49.946Z,17.60
2018-07-22T03:34:18.902Z,17.60
2018-07-22T03:39:16.290Z,17.50
2018-07-22T03:44:13.712Z,17.60
2018-07-22T03:46:42.611Z,17.60
2018-07-22T03:49:11.591Z,17.60
2018-07-22T03:51:40.612Z,17.60
2018-07-22T03:54:09.553Z,17.60
2018-07-22T03:56:38.518Z,17.70
2018-07-22T03:59:07.631Z,17.70
2018-07-22T04:01:36.631Z,17.70
2018-07-22T04:04:05.546Z,17.70
2018-07-22T04:06:34.511Z,17.70
2018-07-22T04:09:03.622Z,17.70
2018-07-22T04:11:32.554Z,17.80
2018-07-22T04:14:01.523Z,17.80
2018-07-22T04:16:30.523Z,17.80
2018-07-22T04:18:59.511Z,17.80
2018-07-22T04:21:28.503Z,17.80
2018-07-22T04:23:57.531Z,17.90
2018-07-22T04:26:26.531Z,17.90
2018-07-22T04:28:55.513Z,18.00
2018-07-22T04:31:24.533Z,18.00
2018-07-22T04:33:53.458Z,18.10
2018-07-22T04:36:22.458Z,18.10
2018-07-22T04:38:51.580Z,18.10
2018-07-22T04:41:20.450Z,18.10
2018-07-22T04:43:49.459Z,18.10
2018-07-22T04:46:18.436Z,18.10
2018-07-22T04:48:47.471Z,18.10
2018-07-22T04:53:44.891Z,18.20
2018-07-22T04:56:13.918Z,18.20
2018-07-22T04:58:42.851Z,18.20
2018-07-22T05:01:11.857Z,18.20
2018-07-22T05:03:40.808Z,18.20
2018-07-22T05:06:09.673Z,18.30
2018-07-22T05:08:38.640Z,18.30
2018-07-22T05:11:07.623Z,18.30
2018-07-22T05:13:36.596Z,18.40
2018-07-22T05:18:34.047Z,18.60
2018-07-22T05:21:03.007Z,18.70
2018-07-22T05:23:32.053Z,18.80
2018-07-22T05:26:01.014Z,18.90
2018-07-22T05:28:29.933Z,19.00
2018-07-22T05:33:27.389Z,19.10
2018-07-22T05:35:56.355Z,19.20
2018-07-22T05:38:26.698Z,19.20
2018-07-22T05:40:55.633Z,19.30
2018-07-22T05:45:53.036Z,19.50
2018-07-22T05:48:28.460Z,19.60
2018-07-22T05:50:57.393Z,19.70
2018-07-22T05:53:26.308Z,19.70
2018-07-22T05:55:55.211Z,19.90
2018-07-22T05:58:24.175Z,20.00
2018-07-22T06:00:53.140Z,20.10
2018-07-22T06:03:22.130Z,20.20
2018-07-22T06:05:51.351Z,20.20
2018-07-22T06:08:20.241Z,20.30
2018-07-22T06:10:49.191Z,20.40
2018-07-22T06:13:18.156Z,20.40
2018-07-22T06:15:47.035Z,20.40
2018-07-22T06:18:16.031Z,20.50
2018-07-22T06:20:44.963Z,20.50
2018-07-22T06:23:13.809Z,20.50
2018-07-22T06:25:42.931Z,20.60
2018-07-22T06:30:40.436Z,20.60
2018-07-22T06:33:09.394Z,20.60
2018-07-22T06:38:06.833Z,20.70
2018-07-22T06:40:35.848Z,20.80
2018-07-22T06:43:04.728Z,20.90
2018-07-22T06:45:33.651Z,21.10
2018-07-22T06:48:02.602Z,21.20
2018-07-22T06:50:31.572Z,21.30
2018-07-22T06:53:00.563Z,21.40
2018-07-22T06:55:29.499Z,21.40
2018-07-22T06:57:58.391Z,21.40
2018-07-22T07:00:27.346Z,21.30
2018-07-22T07:02:56.309Z,21.30
2018-07-22T07:05:25.210Z,21.30
2018-07-22T07:07:54.231Z,21.20
2018-07-22T07:10:23.190Z,21.20
2018-07-22T07:12:52.130Z,21.20
2018-07-22T07:15:21.054Z,21.10
2018-07-22T07:17:50.067Z,21.10
2018-07-22T07:23:22.710Z,21.00
2018-07-22T07:25:51.694Z,21.10
2018-07-22T07:28:20.672Z,21.10
2018-07-22T07:30:49.686Z,21.00
2018-07-22T07:33:18.904Z,21.10
2018-07-22T07:35:47.949Z,21.20
2018-07-22T07:38:16.975Z,21.20
2018-07-22T07:40:47.603Z,21.30
2018-07-22T07:43:16.806Z,21.40
2018-07-22T07:45:46.023Z,21.50
2018-07-22T07:48:15.068Z,21.60
2018-07-22T07:50:44.256Z,21.70
2018-07-22T07:53:13.272Z,21.80
2018-07-22T07:55:42.316Z,21.80
2018-07-22T07:58:11.273Z,21.80
2018-07-22T08:00:40.347Z,21.70
2018-07-22T08:03:09.338Z,21.70
2018-07-22T08:05:38.400Z,21.70
2018-07-22T08:08:07.332Z,21.60
2018-07-22T08:10:36.361Z,21.50
2018-07-22T08:13:05.389Z,21.40
2018-07-22T08:15:34.771Z,21.30
2018-07-22T08:18:03.783Z,21.30
2018-07-22T08:20:32.813Z,21.20
2018-07-22T08:23:01.774Z,21.10
2018-07-22T08:25:30.783Z,21.10
2018-07-22T08:27:59.933Z,21.00
2018-07-22T08:30:29.002Z,21.00
2018-07-22T08:32:57.955Z,20.90
2018-07-22T08:35:26.978Z,20.90
2018-07-22T08:37:56.293Z,20.90
2018-07-22T08:40:25.346Z,20.80
2018-07-22T08:45:23.105Z,20.90
2018-07-22T08:47:52.099Z,21.00
2018-07-22T08:52:49.777Z,21.10
2018-07-22T08:55:18.731Z,21.10
2018-07-22T08:57:47.791Z,21.20
2018-07-22T09:00:16.739Z,21.30
2018-07-22T09:02:45.811Z,21.30
2018-07-22T09:05:14.854Z,21.50
2018-07-22T09:07:43.932Z,21.60
2018-07-22T09:10:13.149Z,21.70
2018-07-22T09:12:42.302Z,21.90
2018-07-22T09:15:11.402Z,22.30
2018-07-22T09:17:40.516Z,22.80
2018-07-22T09:20:09.457Z,23.10
2018-07-22T09:22:38.512Z,23.20
2018-07-22T09:25:07.521Z,23.20
2018-07-22T09:27:36.517Z,23.20
2018-07-22T09:30:05.668Z,23.20
2018-07-22T09:32:34.781Z,23.10
2018-07-22T09:35:04.420Z,22.80
2018-07-22T09:37:33.490Z,22.80
2018-07-22T09:40:02.489Z,22.80
2018-07-22T09:42:31.933Z,22.80
2018-07-22T09:47:29.514Z,22.90
2018-07-22T09:49:58.612Z,23.00
2018-07-22T09:52:27.663Z,23.10
2018-07-22T09:54:56.667Z,23.10
2018-07-22T09:57:25.611Z,23.10
2018-07-22T09:59:54.568Z,23.10
2018-07-22T10:02:23.638Z,23.30
2018-07-22T10:04:52.578Z,23.40
2018-07-22T10:07:21.496Z,23.60
2018-07-22T10:09:50.436Z,23.90
2018-07-22T10:12:19.405Z,24.10
2018-07-22T10:14:48.524Z,24.40
2018-07-22T10:17:17.437Z,24.60
2018-07-22T10:19:46.564Z,24.90
2018-07-22T10:22:15.630Z,25.40
2018-07-22T10:24:44.511Z,25.70
2018-07-22T10:29:42.012Z,26.50
2018-07-22T10:32:10.909Z,26.70
2018-07-22T10:34:39.844Z,27.10
2018-07-22T10:37:08.771Z,27.30
2018-07-22T10:42:06.364Z,27.60
2018-07-22T10:44:35.273Z,27.80
2018-07-22T10:47:04.343Z,27.60
2018-07-22T10:49:33.348Z,27.30
2018-07-22T10:52:02.609Z,26.80
2018-07-22T10:54:31.566Z,26.40
2018-07-22T10:57:00.603Z,26.10
2018-07-22T10:59:29.598Z,25.70
2018-07-22T11:01:58.618Z,25.30
2018-07-22T11:04:27.605Z,24.90
2018-07-22T11:06:56.753Z,24.60
2018-07-22T11:09:25.606Z,24.50
2018-07-22T11:11:54.598Z,24.50
2018-07-22T11:14:23.638Z,24.60
2018-07-22T11:16:52.734Z,24.60
2018-07-22T11:19:21.869Z,24.60
2018-07-22T11:21:51.174Z,24.70
2018-07-22T11:24:20.371Z,24.80
2018-07-22T11:26:49.327Z,24.70
2018-07-22T11:29:18.356Z,24.70
2018-07-22T11:31:47.399Z,24.70
2018-07-22T11:34:16.464Z,24.50
2018-07-22T11:36:45.451Z,24.50
2018-07-22T11:39:14.474Z,24.50
2018-07-22T11:41:43.513Z,24.30
2018-07-22T11:44:12.663Z,24.00
2018-07-22T11:46:41.651Z,23.80
2018-07-22T11:49:10.676Z,23.60
2018-07-22T11:51:39.788Z,23.50
2018-07-22T11:54:08.992Z,23.70
2018-07-22T11:56:38.006Z,24.00
2018-07-22T11:59:07.271Z,24.10
2018-07-22T12:01:36.247Z,24.40
2018-07-22T12:04:06.588Z,24.70
2018-07-22T12:06:35.736Z,25.00
2018-07-22T12:09:06.731Z,25.30
2018-07-22T12:11:35.755Z,25.20
2018-07-22T12:14:04.862Z,25.20
2018-07-22T12:19:02.412Z,25.30
2018-07-22T12:21:31.390Z,25.20
2018-07-22T12:24:00.390Z,25.00
2018-07-22T12:26:29.513Z,24.80
2018-07-22T12:31:27.194Z,24.50
2018-07-22T12:33:56.523Z,24.50
2018-07-22T12:36:25.587Z,24.50
2018-07-22T12:38:54.682Z,24.60
2018-07-22T12:43:52.308Z,24.10
2018-07-22T12:46:21.370Z,23.90
2018-07-22T12:48:50.411Z,23.80
2018-07-22T12:51:19.503Z,23.90
2018-07-22T12:53:48.555Z,23.80
2018-07-22T12:56:17.594Z,23.90
2018-07-22T12:58:47.572Z,23.90
2018-07-22T13:01:16.602Z,24.00
2018-07-22T13:03:45.667Z,24.10
2018-07-22T13:06:14.705Z,24.20
2018-07-22T13:08:43.713Z,24.30
2018-07-22T13:11:12.830Z,24.40
2018-07-22T13:13:41.843Z,24.40
2018-07-22T13:16:10.885Z,24.60
2018-07-22T13:18:39.792Z,25.00
2018-07-22T13:21:09.226Z,25.30
2018-07-22T13:23:38.281Z,25.30
2018-07-22T13:26:07.327Z,25.30
2018-07-22T13:28:36.279Z,25.10
2018-07-22T13:31:05.310Z,24.90
2018-07-22T13:33:34.402Z,24.70
2018-07-22T13:36:03.501Z,24.50
2018-07-22T13:38:32.528Z,24.40
2018-07-22T13:41:01.477Z,24.70
2018-07-22T13:43:30.445Z,24.90
2018-07-22T13:45:59.549Z,25.10
2018-07-22T13:48:28.870Z,25.10
2018-07-22T13:50:57.915Z,24.90
2018-07-22T13:53:26.930Z,24.70
2018-07-22T13:55:55.926Z,24.60
2018-07-22T13:58:24.925Z,24.50
2018-07-22T14:00:53.913Z,24.20
2018-07-22T14:03:23.010Z,24.10
2018-07-22T14:05:52.144Z,24.00
2018-07-22T14:08:21.139Z,23.80
2018-07-22T14:10:50.156Z,23.50
2018-07-22T14:13:19.158Z,23.40
2018-07-22T14:15:48.117Z,23.10
2018-07-22T14:18:17.184Z,23.00
2018-07-22T14:20:46.748Z,22.80
2018-07-22T14:23:23.737Z,22.60
2018-07-22T14:25:52.792Z,22.50
2018-07-22T14:30:50.522Z,22.20
2018-07-22T14:33:19.578Z,22.00
2018-07-22T14:35:48.678Z,21.80
2018-07-22T14:38:17.833Z,21.50
2018-07-22T14:40:46.958Z,21.30
2018-07-22T14:43:15.950Z,21.10
2018-07-22T14:45:44.978Z,21.00
2018-07-22T14:48:13.953Z,20.90
2018-07-22T14:50:43.050Z,20.90
2018-07-22T14:53:12.071Z,20.90
2018-07-22T14:55:41.193Z,20.90
2018-07-22T14:58:10.189Z,20.90
2018-07-22T15:00:39.240Z,20.90
2018-07-22T15:03:08.446Z,20.90
2018-07-22T15:05:37.771Z,20.90
2018-07-22T15:08:06.883Z,20.90
2018-07-22T15:10:35.959Z,21.00
2018-07-22T15:13:05.083Z,21.00
2018-07-22T15:15:34.183Z,21.00
2018-07-22T15:18:03.191Z,21.00
2018-07-22T15:23:00.969Z,21.00
2018-07-22T15:25:30.105Z,21.00
2018-07-22T15:27:59.292Z,21.00
2018-07-22T15:30:28.971Z,21.00
2018-07-22T15:32:58.050Z,20.90
2018-07-22T15:35:27.131Z,20.80
2018-07-22T15:37:56.245Z,20.70
2018-07-22T15:40:25.433Z,20.60
2018-07-22T15:42:54.538Z,20.70
2018-07-22T15:45:23.543Z,20.60
2018-07-22T15:47:52.837Z,20.50
2018-07-22T15:50:22.551Z,20.40
2018-07-22T15:52:51.542Z,20.40
2018-07-22T15:55:20.854Z,20.30
2018-07-22T15:57:49.796Z,20.30
2018-07-22T16:00:18.931Z,20.20
2018-07-22T16:02:48.022Z,20.20
2018-07-22T16:05:17.232Z,20.20
2018-07-22T16:07:46.914Z,20.10
2018-07-22T16:10:15.952Z,20.10
2018-07-22T16:12:45.001Z,20.00
2018-07-22T16:15:14.398Z,20.00
2018-07-22T16:17:43.466Z,19.90
2018-07-22T16:20:12.499Z,19.90
2018-07-22T16:22:41.618Z,19.80
2018-07-22T16:25:11.591Z,19.80
2018-07-22T16:27:40.686Z,19.90
2018-07-22T16:30:09.726Z,19.90
2018-07-22T16:32:38.822Z,19.80
2018-07-22T16:35:07.896Z,19.80
2018-07-22T16:37:36.950Z,19.90
2018-07-22T16:40:05.917Z,19.90
2018-07-22T16:42:34.977Z,19.90
2018-07-22T16:45:03.948Z,19.90
2018-07-22T16:47:33.000Z,19.90
2018-07-22T16:50:02.106Z,19.90
2018-07-22T16:54:59.645Z,19.90
2018-07-22T16:57:28.715Z,19.90
2018-07-22T16:59:57.842Z,19.90
2018-07-22T17:02:26.899Z,19.90
2018-07-22T17:04:56.116Z,19.90
2018-07-22T17:07:25.190Z,19.80
2018-07-22T17:09:54.187Z,19.80
2018-07-22T17:12:23.263Z,19.80
2018-07-22T17:14:52.207Z,19.70
2018-07-22T17:17:21.212Z,19.70
2018-07-22T17:19:50.234Z,19.70
2018-07-22T17:24:47.884Z,19.60
2018-07-22T17:27:21.290Z,19.50
2018-07-22T17:29:50.459Z,19.40
2018-07-22T17:32:19.498Z,19.40
2018-07-22T17:34:48.695Z,19.30
2018-07-22T17:37:17.801Z,19.30
2018-07-22T17:39:46.794Z,19.30
2018-07-22T17:42:15.858Z,19.20
2018-07-22T17:44:44.807Z,19.10
2018-07-22T17:47:13.769Z,19.10
2018-07-22T17:49:42.717Z,19.00
2018-07-22T17:52:11.780Z,18.90
2018-07-22T17:54:40.854Z,18.80
2018-07-22T17:57:10.334Z,18.80
2018-07-22T17:59:39.334Z,18.70
2018-07-22T18:02:08.412Z,18.60
2018-07-22T18:04:37.403Z,18.60
2018-07-22T18:07:06.695Z,18.50
2018-07-22T18:09:35.733Z,18.50
2018-07-22T18:12:04.771Z,18.50
2018-07-22T18:14:33.761Z,18.40
2018-07-22T18:17:02.903Z,18.40
2018-07-22T18:19:31.971Z,18.40
2018-07-22T18:22:01.032Z,18.30
2018-07-22T18:24:30.054Z,18.30
2018-07-22T18:26:59.111Z,18.30
2018-07-22T18:29:28.872Z,18.30
2018-07-22T18:31:58.012Z,18.20
2018-07-22T18:34:27.037Z,18.20
2018-07-22T18:36:56.100Z,18.20
2018-07-22T18:39:25.288Z,18.20
2018-07-22T18:41:54.389Z,18.20
2018-07-22T18:44:23.492Z,18.20
2018-07-22T18:46:52.466Z,18.20
2018-07-22T18:49:21.847Z,18.10
2018-07-22T18:51:50.918Z,18.10
2018-07-22T18:54:20.013Z,18.10
2018-07-22T18:56:49.019Z,18.10
2018-07-22T18:59:18.260Z,18.10
2018-07-22T19:01:47.233Z,18.10
2018-07-22T19:04:16.245Z,18.00
2018-07-22T19:06:45.310Z,18.00
2018-07-22T19:09:14.404Z,18.00
2018-07-22T19:11:43.514Z,17.90
2018-07-22T19:14:12.591Z,17.90
2018-07-22T19:16:41.611Z,17.90
2018-07-22T19:19:10.686Z,17.80
2018-07-22T19:21:39.903Z,17.80
2018-07-22T19:24:08.955Z,17.80
2018-07-22T19:26:38.112Z,17.80
2018-07-22T19:29:07.292Z,17.80
2018-07-22T19:31:36.380Z,17.80
2018-07-22T19:34:05.530Z,17.80
2018-07-22T19:36:34.550Z,17.80
2018-07-22T19:39:03.656Z,17.80
2018-07-22T19:41:32.747Z,17.70
2018-07-22T19:44:01.783Z,17.80
2018-07-22T19:46:30.874Z,17.80
2018-07-22T19:48:59.955Z,17.80
2018-07-22T19:51:29.109Z,17.70
2018-07-22T19:53:58.255Z,17.70
2018-07-22T19:56:27.223Z,17.80
2018-07-22T19:58:56.234Z,17.80
2018-07-22T20:01:25.245Z,17.80
2018-07-22T20:03:54.229Z,17.80
2018-07-22T20:06:23.271Z,17.90
2018-07-22T20:08:52.312Z,17.90
2018-07-22T20:11:21.375Z,17.80
2018-07-22T20:13:50.413Z,17.90
2018-07-22T20:16:19.429Z,17.90
2018-07-22T20:18:49.654Z,17.90
2018-07-22T20:21:18.711Z,17.90
2018-07-22T20:23:47.797Z,17.90
2018-07-22T20:26:16.790Z,17.90
2018-07-22T20:28:45.965Z,17.80
2018-07-22T20:31:14.972Z,17.80
2018-07-22T20:33:44.091Z,17.80
2018-07-22T20:36:13.169Z,17.90
2018-07-22T20:38:42.094Z,17.80
2018-07-22T20:41:11.254Z,17.80
2018-07-22T20:43:40.531Z,17.80
2018-07-22T20:46:09.539Z,17.70
2018-07-22T20:48:38.593Z,17.70
2018-07-22T20:51:07.610Z,17.70
2018-07-22T20:53:36.615Z,17.70
2018-07-22T20:56:05.558Z,17.70
2018-07-22T20:58:34.776Z,17.70
2018-07-22T21:01:03.774Z,17.60
2018-07-22T21:03:32.812Z,17.70
2018-07-22T21:06:01.812Z,17.60
2018-07-22T21:08:30.815Z,17.60
2018-07-22T21:11:00.083Z,17.60
2018-07-22T21:13:29.098Z,17.60
2018-07-22T21:15:58.129Z,17.70
2018-07-22T21:18:27.219Z,17.70
2018-07-22T21:20:56.413Z,17.70
2018-07-22T21:23:25.424Z,17.70
2018-07-22T21:25:54.655Z,17.70
2018-07-22T21:28:23.732Z,17.70
2018-07-22T21:30:52.815Z,17.70
2018-07-22T21:33:21.871Z,17.70
2018-07-22T21:35:50.886Z,17.70
2018-07-22T21:38:19.910Z,17.70
2018-07-22T21:43:23.364Z,17.70
2018-07-22T21:45:52.367Z,17.70
2018-07-22T21:48:21.352Z,17.70
2018-07-22T21:50:50.412Z,17.70
2018-07-22T21:53:19.445Z,17.70
2018-07-22T21:55:48.477Z,17.70
2018-07-22T21:58:17.462Z,17.70
2018-07-22T22:00:46.455Z,17.70
2018-07-22T22:03:15.530Z,17.70
2018-07-22T22:05:44.670Z,17.70
2018-07-22T22:08:13.791Z,17.70
2018-07-22T22:10:42.760Z,17.70
2018-07-22T22:13:11.858Z,17.70
2018-07-22T22:15:40.830Z,17.70
2018-07-22T22:18:09.891Z,17.70
2018-07-22T22:20:38.961Z,17.70
2018-07-22T22:23:08.345Z,17.70
2018-07-22T22:25:37.345Z,17.60
2018-07-22T22:28:06.352Z,17.60
2018-07-22T22:30:35.401Z,17.60
2018-07-22T22:33:05.350Z,17.70
2018-07-22T22:35:34.350Z,17.70
2018-07-22T22:38:03.391Z,17.70
2018-07-22T22:40:32.353Z,17.60
2018-07-22T22:43:01.364Z,17.70
2018-07-22T22:45:30.438Z,17.60
2018-07-22T22:47:59.535Z,17.60
2018-07-22T22:50:28.608Z,17.60
2018-07-22T22:52:57.566Z,17.60
2018-07-22T22:55:27.051Z,17.60
2018-07-22T22:58:06.963Z,17.60
2018-07-22T23:00:35.895Z,17.60
2018-07-22T23:03:04.835Z,17.60
2018-07-22T23:05:33.852Z,17.60
2018-07-22T23:10:31.310Z,17.50
2018-07-22T23:13:00.272Z,17.60
2018-07-22T23:15:29.231Z,17.60
2018-07-22T23:17:58.214Z,17.50
2018-07-22T23:20:27.211Z,17.50
2018-07-22T23:25:24.751Z,17.50
2018-07-22T23:27:59.917Z,17.50
2018-07-22T23:30:28.890Z,17.50
2018-07-22T23:32:57.754Z,17.50
2018-07-22T23:35:26.651Z,17.50
2018-07-22T23:37:55.557Z,17.50
2018-07-22T23:40:24.553Z,17.50
2018-07-22T23:42:53.490Z,17.50
2018-07-22T23:45:22.433Z,17.50
2018-07-22T23:47:51.338Z,17.40
2018-07-22T23:50:20.332Z,17.40
2018-07-22T23:52:49.493Z,17.40
2018-07-22T23:55:18.413Z,17.40
2018-07-22T23:57:47.390Z,17.30
